Aviation Digital Data Service (ADDS)

Output produced by METARs form (1622 UTC 03 May 2016)
found at http://www.aviationweather.gov/adds/metars/
 
KDUJ 031601Z AUTO 26005KT 10SM SCT025 BKN034 OVC041 13/07 A2982 RMK AO2 T01280067 $
KDUJ 031553Z AUTO 26007KT 10SM BKN025 BKN037 13/07 A2982 RMK AO2 SLP099 T01280067 $
KDUJ 031453Z AUTO 03003KT 10SM FEW004 SCT018 BKN025 10/08 A2984 RMK AO2 SLP104 T01000078 56002
KDUJ 031448Z AUTO 00000KT 10SM FEW004 SCT018 BKN025 10/08 A2984 RMK AO2
KDUJ 031408Z AUTO 34003KT 3SM BR OVC002 09/08 A2984 RMK AO2 T00890083
KDUJ 031353Z AUTO 33003KT 1SM BR OVC002 09/08 A2984 RMK AO2 SLP107 T00890078
KDUJ 031322Z AUTO 34003KT 1/2SM FG OVC002 08/08 A2984 RMK AO2 T00830078
KDUJ 031253Z AUTO 34003KT 1/4SM FG VV002 08/08 A2984 RMK AO2 SLP106 T00830078
KDUJ 031153Z AUTO 36005KT 1/4SM FG VV002 08/08 A2985 RMK AO2 SLP107 T00830078 10094 20083 51000
KDUJ 031122Z AUTO 34004KT 1/4SM FG OVC002 08/07 A2985 RMK AO2 T00830072
KDUJ 031110Z AUTO 34003KT 1/2SM FG OVC003 08/07 A2985 RMK AO2 T00830072
KDUJ 031058Z AUTO 34004KT 1 3/4SM BR OVC003 08/07 A2985 RMK AO2 T00830072
KDUJ 031053Z AUTO 36005KT 3SM BR OVC004 09/08 A2984 RMK AO2 SLP105 T00890078
KDUJ 031044Z AUTO 34004KT 4SM BR OVC004 09/07 A2984 RMK AO2 T00890072
KDUJ 030953Z AUTO 00000KT 9SM OVC006 09/08 A2985 RMK AO2 SLP106 T00890078
KDUJ 030853Z AUTO 03004KT 10SM OVC007 09/07 A2984 RMK AO2 SLP105 T00890072 56006
KDUJ 030830Z AUTO 35005KT 10SM BKN008 OVC013 09/07 A2985 RMK AO2 T00890072
KDUJ 030753Z AUTO 34004KT 10SM BKN012 OVC026 09/08 A2985 RMK AO2 SLP107 T00940078
KDUJ 030749Z AUTO 35004KT 10SM BKN012 OVC026 09/08 A2985 RMK AO2
KDUJ 030653Z AUTO 34005KT 10SM SCT009 OVC015 09/08 A2986 RMK AO2 SLP111 T00940078
KDUJ 030634Z AUTO 33003KT 10SM BKN009 OVC050 09/08 A2987 RMK AO2 T00940078
KDUJ 030622Z AUTO 33004KT 10SM SCT009 OVC049 09/08 A2987 RMK AO2 T00940078
KDUJ 030553Z AUTO 35004KT 10SM OVC050 09/08 A2987 RMK AO2 SLP112 T00940078 10133 20094 58009
KDUJ 030453Z AUTO 01005KT 10SM BKN047 OVC060 10/08 A2988 RMK AO2 SLP118 T01000078 401720100
KDUJ 030353Z AUTO 02005KT 10SM OVC047 10/08 A2989 RMK AO2 SLP120 T01000078
KDUJ 030253Z AUTO 36004KT 10SM OVC044 11/08 A2990 RMK AO2 SLP123 T01060083 58007
KDUJ 030153Z AUTO 34005KT 10SM OVC043 11/08 A2990 RMK AO2 SLP126 T01110083
KDUJ 030053Z AUTO 34004KT 10SM OVC042 12/09 A2991 RMK AO2 SLP128 T01220089
KDUJ 022353Z AUTO 34005KT 10SM BKN044 OVC070 13/08 A2992 RMK AO2 SLP128 T01330083 10172 20133 53003
KDUJ 022253Z AUTO 02005KT 10SM BKN046 14/09 A2990 RMK AO2 SLP125 T01390089
KDUJ 022153Z AUTO 32006KT 10SM BKN048 BKN060 14/08 A2992 RMK AO2 SLP130 T01440083
KDUJ 022053Z AUTO 29007G15KT 10SM CLR 16/09 A2991 RMK AO2 SLP125 T01560089 58002
KDUJ 021953Z AUTO 30008G16KT 10SM BKN034 BKN043 16/08 A2992 RMK AO2 SLP130 T01560083
KDUJ 021925Z AUTO 27008KT 240V310 10SM FEW027 BKN037 17/10 A2991 RMK AO2 T01720100
KDUJ 021914Z AUTO 30012G16KT 10SM BKN029 OVC037 16/09 A2991 RMK AO2 T01610089
KDUJ 021853Z AUTO 33011KT 10SM SCT027 BKN032 16/09 A2991 RMK AO2 SLP124 T01610094
KDUJ 021814Z AUTO 30008G17KT 10SM FEW022 SCT027 16/10 A2991 RMK AO2 T01610100
KDUJ 021753Z AUTO 29010KT 10SM SCT018 BKN026 BKN032 16/10 A2991 RMK AO2 SLP127 T01560100 10161 20128 50007
KDUJ 021653Z AUTO 28013KT 10SM BKN015 OVC023 14/10 A2992 RMK AO2 SLP129 T01440100
KDUJ 021641Z AUTO 28010G18KT 10SM BKN015 OVC021 14/10 A2992 RMK AO2 T01390100
KDUJ 021553Z AUTO 27015G21KT 10SM BKN010 BKN017 OVC025 13/10 A2992 RMK AO2 CIG 007V012 SLP128 T01330100
KDUJ 021542Z AUTO 26012KT 10SM BKN010 BKN014 OVC027 14/11 A2991 RMK AO2 CIG 007V012 T01390111
KDUJ 021527Z AUTO 27012G18KT 10SM BKN008 OVC015 13/11 A2991 RMK AO2 CIG 007V012 T01280106
KDUJ 021453Z AUTO 27009KT 10SM BKN012 OVC019 13/11 A2989 RMK AO2 SLP121 T01330111 53013
KDUJ 021353Z AUTO 25011KT 10SM OVC010 13/12 A2988 RMK AO2 CIG 007V014 SLP115 T01330117
KDUJ 021327Z AUTO 24013G19KT 10SM BKN011 OVC016 13/12 A2987 RMK AO2 CIG 008V013 T01330117
KDUJ 021253Z AUTO 25014G21KT 10SM BKN009 OVC014 13/12 A2987 RMK AO2 CIG 006V010 SLP111 T01330117
KDUJ 021153Z AUTO 23008KT 10SM OVC006 13/12 A2985 RMK AO2 CIG 003V010 SLP106 60020 70074 T01280122 10128 20111 58002
KDUJ 021053Z AUTO VRB04KT 6SM BR BKN002 OVC009 11/11 A2985 RMK AO2 RAE14 TSE04 CIG 002V005 SLP105 P0004 T01110106
KDUJ 021024Z AUTO 13008KT 7SM BKN002 BKN016 OVC030 11/10 A2985 RMK AO2 LTG DSNT E RAE14 TSE04 P0004 T01110100
KDUJ 021017Z AUTO 13007KT 7SM SCT002 BKN014 OVC024 11/11 A2985 RMK AO2 LTG DSNT E RAE14 TSE04 P0004 T01110106
KDUJ 021006Z AUTO 13007KT 3SM VCTS -RA BR BKN002 BKN010 OVC014 11/11 A2985 RMK AO2 LTG DSNT NE AND E TSE04 P0004 T01110106
KDUJ 021003Z AUTO 13005KT 2SM -TSRA BR SCT002 OVC015 11/11 A2985 RMK AO2 LTG DSNT NE AND E P0004 T01110106
KDUJ 020956Z AUTO 12006KT 1 1/2SM TSRA BR SCT003 OVC011 11/11 A2986 RMK AO2 LTG DSNT E AND S P0002 T01110106
KDUJ 020953Z AUTO 13006KT 1 1/2SM TSRA BR BKN003 OVC013 11/11 A2986 RMK AO2 LTG DSNT NE-S RAB05 TSB08E23B38 SLP110 P0015 T01110106
KDUJ 020944Z AUTO 11005KT 1 3/4SM -TSRA BR OVC003 11/11 A2986 RMK AO2 LTG DSNT ALQDS RAB05 TSB08E23B38 P0007 T01110106
KDUJ 020929Z AUTO 10005KT 1 1/4SM VCTS -RA BR OVC002 11/10 A2986 RMK AO2 LTG DSNT ALQDS RAB05 TSB08E23 P0003 T01110100
KDUJ 020918Z AUTO 09005KT 1 3/4SM -TSRA BR OVC002 11/10 A2986 RMK AO2 LTG DSNT ALQDS RAB05 TSB08 P0001 T01110100
KDUJ 020908Z AUTO 00000KT 1/2SM -TSRA FG VV002 11/11 A2987 RMK AO2 LTG DSNT SE-W RAB05 TSB08 P0000 T01110106
KDUJ 020853Z AUTO 06005KT 1/2SM FG VV002 11/11 A2986 RMK AO2 LTG DSNT SE-W RAB21E36 SLP107 P0001 60001 T01110106 56012
KDUJ 020826Z AUTO 11008KT 1/2SM -RA FG VV002 11/10 A2986 RMK AO2 LTG DSNT N AND S RAB21 P0000 T01110100
KDUJ 020753Z AUTO 11009KT 1/4SM FG VV002 11/11 A2987 RMK AO2 LTG DSNT W-N SLP113 T01110106
KDUJ 020739Z AUTO 12007KT 1/4SM FG VV002 11/11 A2989 RMK AO2 LTG DSNT N AND NW T01110106
KDUJ 020721Z AUTO 13008KT 1/2SM FG VV002 11/11 A2989 RMK AO2 T01110106
KDUJ 020653Z AUTO 11006KT 1/4SM FG VV002 11/11 A2989 RMK AO2 SLP121 T01110106
KDUJ 020612Z AUTO 11007KT 1/2SM FG VV002 12/11 A2991 RMK AO2 T01170111
KDUJ 020553Z AUTO 12007KT 1/4SM FG VV002 12/11 A2991 RMK AO2 SLP126 60008 T01170111 10128 20117 56014
KDUJ 020453Z AUTO 09004KT 1/4SM FG VV002 12/12 A2992 RMK AO2 SLP131 T01220117 401780083